• Join FlightAware (Why Join?)
  • Login
  • US Flag 
10:48AM EDT


 

Airport Tracker/Info


-or-


 

Live Flight TrackerFlight Track Log ✈ FIV521 ✈ 15-Apr-2013 ✈ KVRB - KABE

Flight Track Log - Related Links

Times and Time Zones

All times are in EDT time to prevent confusion due to time zone crossing. See the FIV521 flight status page for this flight to view local times or setup timezone preferences in your user account.

Time Position Orientation Groundspeed Altitude Reporting Facility
EDT Latitude Longitude Course Direction KTS MPH feet Rate Location/Type
11:53AM 27.6539 -80.3992 104° East 411 473 1,300  Level Miami Center
11:55AM 27.7489 -80.4375 340° North 153 176 6,500 2,520 Climbing Miami Center
11:56AM 27.7783 -80.5064 296° West 218 251 9,000 2,280 Climbing Miami Center
11:57AM 28.1827 -80.7664 336° Northwest  Level FlightAware Approximate
11:57AM 27.8139 -80.5850 297° West 265 305 11,100  Level Miami Center
11:58AM 27.8556 -80.6756 298° West 289 333 13,500 2,220 Climbing Miami Center
11:59AM 27.8950 -80.7592 298° West 295 339 15,600 2,100 Climbing Miami Center
12:00PM 27.9364 -80.8428 299° West 301 346 17,800 1,860 Climbing Miami Center
12:01PM 27.9719 -80.9239 296° West 306 352 19,400 1,560 Climbing Miami Center
12:02PM 28.0431 -80.9831 324° Northwest 306 352 21,000 1,500 Climbing Miami Center
12:03PM 28.1339 -81.0217 339° North 327 376 22,400 1,440 Climbing Miami Center
12:04PM 28.2294 -81.0392 351° North 332 382 23,900 1,500 Climbing Miami Center
12:05PM 28.3289 -81.0617 349° North 340 391 25,400 1,500 Climbing Miami Center
12:06PM 28.4242 -81.0819 349° North 350 403 26,900 1,500 Climbing Miami Center
12:07PM 28.5217 -81.1044 349° North 355 409 28,400 1,500 Climbing Miami Center
12:08PM 28.6192 -81.1247 350° North 355 409 29,900 1,500 Climbing Miami Center
12:09PM 28.6556 -81.1347 346° North 365 420 30,500 1,500 Climbing Jacksonville Center
12:10PM 28.7558 -81.1567 349° North 372 428 32,000 1,320 Climbing Jacksonville Center
12:11PM 28.8542 -81.1786 349° North 372 428 33,200 1,140 Climbing Jacksonville Center
12:12PM 28.9547 -81.2006 349° North 372 428 34,300 1,020 Climbing Jacksonville Center
12:13PM 29.0572 -81.2228 349° North 367 422 35,300 960 Climbing Jacksonville Center
12:14PM 29.1558 -81.2472 348° North 367 422 36,300 900 Climbing Jacksonville Center
12:15PM 29.2519 -81.2669 350° North 367 422 37,100 600 Climbing Jacksonville Center
12:16PM 29.3567 -81.2914 349° North 362 417 37,500 600 Climbing Jacksonville Center
12:17PM 29.4614 -81.3111 351° North 372 428 38,400 900 Climbing Jacksonville Center
12:18PM 29.5761 -81.3069 North 372 428 39,400 960 Climbing Jacksonville Center
12:19PM 29.6803 -81.3028 North 372 428 40,400 780 Climbing Jacksonville Center
12:20PM 29.7847 -81.2964 North 366 421 41,000 240 Climbing Jacksonville Center
12:21PM 29.8911 -81.2922 North 366 421 41,000  Level Jacksonville Center
12:22PM 30.0017 -81.2881 North 372 428 41,000  Level Jacksonville Center
12:23PM 30.1144 -81.2836 North 389 448 41,000  Level Jacksonville Center
12:24PM 30.2292 -81.2769 North 400 460 41,000  Level Jacksonville Center
12:25PM 30.3458 -81.2703 North 405 466 41,000  Level Jacksonville Center
12:26PM 30.4608 -81.2683 North 405 466 41,000  Level Jacksonville Center
12:27PM 30.5756 -81.2639 North 405 466 41,000  Level Jacksonville Center
12:28PM 30.6883 -81.2594 North 405 466 41,000  Level Jacksonville Center
12:29PM 30.8008 -81.2553 North 405 466 41,000  Level Jacksonville Center
12:30PM 30.9094 -81.2508 North 405 466 41,000  Level Jacksonville Center
12:31PM 31.0222 -81.2464 North 405 466 41,000  Level Jacksonville Center
12:32PM 31.1389 -81.2419 North 405 466 41,000  Level Jacksonville Center
12:33PM 31.2517 -81.2378 North 405 466 41,000  Level Jacksonville Center
12:34PM 31.3664 -81.2308 North 405 466 41,000  Level Jacksonville Center
12:35PM 31.4936 -81.2236 North 406 467 41,000  Level Jacksonville Center
12:36PM 31.5981 -81.2217 North 406 467 41,000  Level Jacksonville Center
12:37PM 31.7233 -81.2169 North 406 467 41,000  Level Jacksonville Center
12:38PM 31.8381 -81.2100 North 406 467 41,000  Level Jacksonville Center
12:39PM 31.9569 -81.2056 North 411 473 41,000  Level Jacksonville Center
12:40PM 32.0739 -81.2033 North 421 484 41,000  Level Jacksonville Center
12:41PM 32.1906 -81.1964 North 415 478 41,000  Level Jacksonville Center
12:42PM 32.3053 -81.1867 North 421 484 41,000  Level Jacksonville Center
12:43PM 32.4222 -81.1772 North 421 484 41,000  Level Jacksonville Center
12:44PM 32.5286 -81.1728 North 417 480 41,000  Level Jacksonville Center
12:45PM 32.6558 -81.1603 North 417 480 41,000  Level Jacksonville Center
12:46PM 32.7703 -81.1508 North 417 480 41,000  Level Jacksonville Center
12:47PM 32.8892 -81.1411 North 417 480 41,000  Level Jacksonville Center
12:48PM 33.0039 -81.1289 North 423 487 41,000  Level Jacksonville Center
12:49PM 33.1247 -81.1192 North 423 487 41,000  Level Jacksonville Center
12:50PM 33.2436 -81.1094 North 423 487 41,000  Level Jacksonville Center
12:51PM 33.3583 -81.1019 North 423 487 41,000  Level Jacksonville Center
12:52PM 33.4772 -81.0897 North 418 481 41,000  Level Jacksonville Center
12:53PM 33.5939 -81.0800 North 423 487 41,000  Level Jacksonville Center
12:55PM 33.8978 -81.0506 North 404 465 41,000  Level Atlanta Center
12:56PM 34.0122 -81.0392 North 420 483 41,000  Level Atlanta Center
12:57PM 34.1308 -81.0272 North 430 495 41,000  Level Atlanta Center
12:58PM 34.2517 -81.0156 North 435 501 41,000  Level Atlanta Center
12:59PM 34.3661 -81.0014 North 435 501 41,000  Level Atlanta Center
01:00PM 34.4933 -80.9942 North 425 489 41,000  Level Atlanta Center
01:01PM 34.6097 -80.9800 North 420 483 41,000  Level Atlanta Center
01:02PM 34.7264 -80.9706 North 420 483 41,000  Level Atlanta Center
01:03PM 34.8428 -80.9561 North 420 483 41,000  Level Atlanta Center
01:04PM 34.9594 -80.9417 North 425 489 41,000  Level Atlanta Center
01:05PM 35.0739 -80.9300 North 420 483 41,000  Level Atlanta Center
01:06PM 35.1903 -80.9153 North 420 483 41,000  Level Atlanta Center
01:07PM 35.3069 -80.9058 North 420 483 41,000  Level Atlanta Center
01:08PM 35.4214 -80.8914 North 420 483 41,000  Level Atlanta Center
01:09PM 35.5378 -80.8767 North 420 483 41,000  Level Atlanta Center
01:10PM 35.6542 -80.8644 North 420 483 41,000  Level Atlanta Center
01:11PM 35.7708 -80.8547 North 420 483 41,000  Level Atlanta Center
01:12PM 35.8872 -80.8425 North 420 483 41,000  Level Atlanta Center
01:13PM 36.0017 -80.8303 North 420 483 41,000  Level Atlanta Center
01:14PM 36.1183 -80.8181 North 420 483 41,000  Level Atlanta Center
01:15PM 36.2222 -80.8061 North 420 483 41,000 -420 Level Atlanta Center
01:16PM 36.3386 -80.7939 North 420 483 40,200 -1,080 Descending Atlanta Center
01:17PM 36.4531 -80.7814 North 414 476 38,900 -1,380 Descending Atlanta Center
01:18PM 36.5633 -80.7717 North 409 471 37,500 -960 Descending Atlanta Center
01:19PM 36.6733 -80.7569 North 398 458 37,000 -540 Descending Atlanta Center
01:20PM 36.7775 -80.7475 North 398 458 36,500 -720 Descending Atlanta Center
01:22PM 36.9764 -80.7267 North 395 455 35,000 -540 Descending Washington Center
01:23PM 37.1025 -80.7039 North 401 461 35,000  Level Washington Center
01:24PM 37.2081 -80.6250 31° Northeast 406 467 35,000  Level Washington Center
01:25PM 37.3097 -80.5428 33° Northeast 423 487 35,000  Level Washington Center
01:26PM 37.4153 -80.4608 32° Northeast 434 499 35,000  Level Washington Center
01:27PM 37.5167 -80.3808 32° Northeast 434 499 35,000  Level Washington Center
01:28PM 37.6111 -80.3081 31° Northeast 439 505 35,000  Level Washington Center
01:29PM 37.7167 -80.2228 33° Northeast 439 505 35,000  Level Washington Center
01:30PM 37.8222 -80.1400 32° Northeast 444 511 35,000  Level Washington Center
01:31PM 37.9275 -80.0569 32° Northeast 444 511 35,000  Level Washington Center
01:32PM 38.0347 -79.9736 31° Northeast 444 511 35,000  Level Washington Center
01:33PM 38.1403 -79.8872 33° Northeast 444 511 35,000 -600 Level Washington Center
01:34PM 38.2542 -79.7933 33° Northeast 444 511 33,900 -1,440 Descending Washington Center
01:35PM 38.3569 -79.7144 31° Northeast 444 511 32,200 -1,680 Descending Washington Center
01:36PM 38.4578 -79.6300 33° Northeast 444 511 30,600 -1,500 Descending Washington Center
01:37PM 38.5606 -79.5478 32° Northeast 439 505 29,200 -840 Descending Washington Center
01:38PM 38.6633 -79.4656 32° Northeast 439 505 29,000 -120 Descending Washington Center
01:39PM 38.7578 -79.3853 34° Northeast 444 511 29,000  Level Washington Center
01:40PM 38.8542 -79.2969 36° Northeast 439 505 29,000  Level Washington Center
01:41PM 38.9569 -79.2114 33° Northeast 434 499 29,000  Level Washington Center
01:42PM 39.0594 -79.1256 33° Northeast 434 499 29,000  Level Washington Center
01:43PM 39.1619 -79.0422 32° Northeast 434 499 29,000 -720 Level Washington Center
01:44PM 39.2567 -78.9369 41° Northeast 434 499 27,600 -1,320 Descending Washington Center
01:45PM 39.3269 -78.8086 55° Northeast 434 499 26,400 -840 Descending Washington Center
01:46PM 39.4011 -78.6803 53° Northeast 434 499 26,000 -300 Descending Washington Center
01:47PM 39.4797 -78.5439 53° Northeast 434 499 25,900 -1,020 Descending Washington Center
01:48PM 39.5492 -78.4228 53° Northeast 429 494 24,000 -1,920 Descending Washington Center
01:49PM 39.6125 -78.2961 57° Northeast 419 482 22,100 -1,800 Descending Washington Center
01:50PM 39.6675 -78.1686 61° Northeast 406 467 20,500 -960 Descending Washington Center
01:52PM 39.7833 -77.9006 61° Northeast 393 452 19,000 -480 Descending New York Center
01:53PM 39.8311 -77.7647 65° Northeast 399 459 19,000  Level New York Center
01:54PM 39.8806 -77.6344 64° Northeast 404 465 19,000 -60 Level New York Center
01:56PM 39.9353 -77.4800 65° Northeast 413 475 18,900 -660 Descending New York Center
01:56PM 39.9844 -77.3464 64° Northeast 407 468 17,800 -1,260 Descending New York Center
01:58PM 40.0311 -77.2181 65° Northeast 402 463 16,400 -1,080 Descending New York Center
01:59PM 40.0778 -77.0894 65° Northeast 396 456 15,700 -720 Descending New York Center
02:00PM 40.1219 -76.9603 66° East 388 447 15,000 -360 Descending New York Center
02:00PM 40.1633 -76.8472 64° Northeast 388 447 15,000 -480 Level New York Center
02:01PM 40.2050 -76.7283 65° Northeast 377 434 14,100 -1,320 Descending New York Center
02:02PM 40.2533 -76.5939 65° Northeast 367 422 12,400 -1,560 Descending New York Center
02:03PM 40.2944 -76.4747 66° East 357 411 11,000 -1,200 Descending New York Center
02:04PM 40.3308 -76.3717 65° Northeast 352 405 10,000 -540 Descending New York Center
02:06PM 40.3761 -76.2500 64° Northeast 347 399 10,000 -240 Level New York Center
02:06PM 40.4097 -76.1517 66° East 326 375 9,600 -420 Descending New York Center